createdAt,value
2019-02-05T00:06:34.211Z,102088.27
2019-02-05T00:09:01.086Z,102090.17
2019-02-05T00:11:28.256Z,102088.47
2019-02-05T00:13:55.397Z,102092.22
2019-02-05T00:16:22.267Z,102089.22
2019-02-05T00:18:51.632Z,102090.39
2019-02-05T00:21:18.029Z,102091.92
2019-02-05T00:23:45.036Z,102091.08
2019-02-05T00:26:11.888Z,102096.30
2019-02-05T00:28:38.885Z,102086.19
2019-02-05T00:31:05.723Z,102088.70
2019-02-05T00:33:32.479Z,102081.66
2019-02-05T00:36:11.642Z,102083.77
2019-02-05T00:38:38.496Z,102078.42
2019-02-05T00:41:05.647Z,102075.52
2019-02-05T00:43:32.620Z,102084.11
2019-02-05T00:45:59.500Z,102079.41
2019-02-05T00:48:26.250Z,102084.62
2019-02-05T00:50:53.127Z,102076.70
2019-02-05T00:53:20.094Z,102077.61
2019-02-05T00:55:46.844Z,102077.05
2019-02-05T00:58:13.785Z,102077.68
2019-02-05T01:00:40.908Z,102060.91
2019-02-05T01:03:07.748Z,102070.98
2019-02-05T01:05:35.067Z,102063.56
2019-02-05T01:08:01.951Z,102062.14
2019-02-05T01:10:28.795Z,102064.67
2019-02-05T01:12:56.098Z,102058.27
2019-02-05T01:16:03.881Z,102058.89
2019-02-05T01:18:30.869Z,102058.20
2019-02-05T01:20:57.919Z,102054.19
2019-02-05T01:23:24.868Z,102058.33
2019-02-05T01:25:51.693Z,102051.25
2019-02-05T01:28:18.442Z,102046.33
2019-02-05T01:30:45.184Z,102044.48
2019-02-05T01:33:12.100Z,102042.59
2019-02-05T01:35:38.839Z,102040.61
2019-02-05T01:38:20.541Z,102034.95
2019-02-05T01:40:47.380Z,102029.02
2019-02-05T01:43:14.123Z,102025.76
2019-02-05T01:45:41.318Z,102019.06
2019-02-05T01:48:08.150Z,102012.87
2019-02-05T01:50:35.007Z,102014.77
2019-02-05T01:53:44.841Z,102020.50
2019-02-05T01:56:11.673Z,102011.03
2019-02-05T01:58:38.404Z,102002.09
2019-02-05T02:01:06.050Z,102007.42
2019-02-05T02:03:32.889Z,102009.31
2019-02-05T02:05:59.645Z,102006.72
2019-02-05T02:08:26.605Z,101997.66
2019-02-05T02:10:53.354Z,102000.19
2019-02-05T02:13:20.532Z,101991.47
2019-02-05T02:15:47.325Z,101988.88
2019-02-05T02:18:14.453Z,101983.20
2019-02-05T02:20:41.203Z,101981.70
2019-02-05T02:23:08.291Z,101981.50
2019-02-05T02:25:35.113Z,101977.40
2019-02-05T02:28:01.846Z,101983.55
2019-02-05T02:30:48.541Z,101986.47
2019-02-05T02:33:15.458Z,101984.27
2019-02-05T02:35:42.220Z,101984.82
2019-02-05T02:38:09.025Z,101985.09
2019-02-05T02:40:35.832Z,101979.08
2019-02-05T02:43:02.953Z,101975.08
2019-02-05T02:45:29.811Z,101980.26
2019-02-05T02:47:56.737Z,101976.43
2019-02-05T02:50:23.790Z,101987.73
2019-02-05T02:52:50.697Z,101991.89
2019-02-05T02:55:17.564Z,101990.48
2019-02-05T02:57:44.691Z,101983.11
2019-02-05T03:00:13.999Z,101986.53
2019-02-05T03:02:40.971Z,101990.36
2019-02-05T03:05:31.754Z,101991.09
2019-02-05T03:07:58.516Z,101999.81
2019-02-05T03:10:27.055Z,102001.55
2019-02-05T03:12:54.517Z,102004.25
2019-02-05T03:16:02.302Z,101997.98
2019-02-05T03:18:29.101Z,102000.02
2019-02-05T03:20:56.251Z,101996.13
2019-02-05T03:23:23.355Z,102000.38
2019-02-05T03:25:50.492Z,101990.77
2019-02-05T03:28:17.599Z,101992.86
2019-02-05T03:30:44.625Z,101985.56
2019-02-05T03:33:11.524Z,101987.06
2019-02-05T03:35:38.553Z,101986.00
2019-02-05T03:38:05.410Z,101979.64
2019-02-05T03:43:49.318Z,101987.61
2019-02-05T03:46:57.089Z,101992.86
2019-02-05T03:49:23.879Z,101988.36
2019-02-05T03:52:34.709Z,101993.19
2019-02-05T03:55:40.760Z,101985.35
2019-02-05T03:58:46.659Z,101984.67
2019-02-05T04:01:52.615Z,101986.86
2019-02-05T04:04:58.476Z,101980.43
2019-02-05T04:07:57.408Z,101986.61
2019-02-05T04:11:03.272Z,101976.19
2019-02-05T04:14:09.263Z,101977.70
2019-02-05T04:17:15.128Z,101982.49
2019-02-05T04:20:21.383Z,101983.17
2019-02-05T04:23:24.041Z,101992.35
2019-02-05T04:26:30.042Z,101984.05
2019-02-05T04:29:35.935Z,101980.61
2019-02-05T04:32:42.157Z,101979.75
2019-02-05T04:35:48.043Z,101980.69
2019-02-05T04:38:54.034Z,101984.84
2019-02-05T04:42:00.399Z,101966.30
2019-02-05T04:45:06.720Z,101961.19
2019-02-05T04:48:12.898Z,101953.57
2019-02-05T04:51:18.850Z,101958.87
2019-02-05T04:54:24.771Z,101967.11
2019-02-05T04:57:30.763Z,101967.17
2019-02-05T05:00:36.637Z,101971.63
2019-02-05T05:03:22.709Z,101975.36
2019-02-05T05:06:13.655Z,101973.80
2019-02-05T05:09:03.944Z,101964.61
2019-02-05T05:11:30.831Z,101968.97
2019-02-05T05:13:57.715Z,101964.52
2019-02-05T05:16:24.566Z,101970.83
2019-02-05T05:18:51.354Z,101961.27
2019-02-05T05:21:59.207Z,101965.73
2019-02-05T05:24:26.152Z,101957.38
2019-02-05T05:26:53.174Z,101952.76
2019-02-05T05:29:20.001Z,101961.14
2019-02-05T05:32:27.810Z,101961.50
2019-02-05T05:34:55.097Z,101962.67
2019-02-05T05:37:21.973Z,101957.31
2019-02-05T05:39:48.761Z,101952.84
2019-02-05T05:42:15.704Z,101952.95
2019-02-05T05:44:44.408Z,101952.08
2019-02-05T05:47:11.232Z,101952.43
2019-02-05T05:49:38.465Z,101947.02
2019-02-05T05:52:05.594Z,101938.77
2019-02-05T05:54:32.371Z,101932.70
2019-02-05T05:56:59.291Z,101933.19
2019-02-05T05:59:26.479Z,101933.01
2019-02-05T06:01:53.328Z,101931.55
2019-02-05T06:04:20.537Z,101949.05
2019-02-05T06:06:47.288Z,101951.23
2019-02-05T06:09:14.397Z,101955.02
2019-02-05T06:11:41.611Z,101953.59
2019-02-05T06:14:08.474Z,101952.90
2019-02-05T06:16:35.117Z,101954.20
2019-02-05T06:19:02.207Z,101961.75
2019-02-05T06:21:29.346Z,101960.69
2019-02-05T06:23:56.088Z,101966.28
2019-02-05T06:26:22.989Z,101972.00
2019-02-05T06:28:49.632Z,101964.45
2019-02-05T06:31:16.470Z,101970.06
2019-02-05T06:33:43.801Z,101963.22
2019-02-05T06:36:11.160Z,101969.41
2019-02-05T06:38:38.002Z,101966.17
2019-02-05T06:41:04.915Z,101961.16
2019-02-05T06:43:32.255Z,101969.70
2019-02-05T06:46:12.602Z,101971.52
2019-02-05T06:48:41.197Z,101970.70
2019-02-05T06:51:08.026Z,101976.79
2019-02-05T06:53:34.820Z,101982.86
2019-02-05T06:56:22.974Z,101978.26
2019-02-05T06:58:50.110Z,101986.50
2019-02-05T07:01:17.261Z,101983.86
2019-02-05T07:03:43.995Z,101977.84
2019-02-05T07:06:10.898Z,101989.77
2019-02-05T07:08:37.727Z,101989.23
2019-02-05T07:11:04.924Z,101992.88
2019-02-05T07:13:31.761Z,101999.03
2019-02-05T07:15:58.881Z,102017.00
2019-02-05T07:18:25.613Z,102008.45
2019-02-05T07:20:52.281Z,102011.28
2019-02-05T07:23:19.036Z,102011.06
2019-02-05T07:25:45.777Z,102015.23
2019-02-05T07:28:12.569Z,102023.20
2019-02-05T07:30:39.290Z,102026.27
2019-02-05T07:33:06.311Z,102029.22
2019-02-05T07:35:33.682Z,102032.20
2019-02-05T07:38:00.864Z,102026.73
2019-02-05T07:40:27.682Z,102033.53
2019-02-05T07:42:54.634Z,102027.16
2019-02-05T07:45:21.574Z,102029.70
2019-02-05T07:47:48.514Z,102032.76
2019-02-05T07:50:17.665Z,102038.61
2019-02-05T07:52:44.494Z,102028.52
2019-02-05T07:55:11.340Z,102034.02
2019-02-05T07:57:38.207Z,102032.94
2019-02-05T08:00:09.309Z,102028.24
2019-02-05T08:02:36.032Z,102033.13
2019-02-05T08:05:03.673Z,102032.12
2019-02-05T08:07:30.522Z,102037.19
2019-02-05T08:09:57.359Z,102030.70
2019-02-05T08:12:24.405Z,102030.47
2019-02-05T08:14:51.157Z,102036.66
2019-02-05T08:17:18.110Z,102043.91
2019-02-05T08:19:44.975Z,102042.40
2019-02-05T08:22:12.005Z,102040.55
2019-02-05T08:24:38.743Z,102043.68
2019-02-05T08:27:05.577Z,102051.00
2019-02-05T08:29:32.497Z,102049.28
2019-02-05T08:31:59.135Z,102044.27
2019-02-05T08:34:25.935Z,102051.59
2019-02-05T08:36:52.813Z,102054.45
2019-02-05T08:39:19.647Z,102054.12
2019-02-05T08:41:47.014Z,102046.98
2019-02-05T08:44:14.352Z,102055.58
2019-02-05T08:46:41.186Z,102047.68
2019-02-05T08:49:08.403Z,102041.96
2019-02-05T08:51:35.559Z,102046.24
2019-02-05T08:54:02.935Z,102050.61
2019-02-05T08:56:30.451Z,102053.56
2019-02-05T08:58:57.184Z,102058.02
2019-02-05T09:01:24.019Z,102059.92
2019-02-05T09:03:50.800Z,102052.66
2019-02-05T09:06:17.647Z,102054.31
2019-02-05T09:08:44.467Z,102059.45
2019-02-05T09:11:11.780Z,102065.87
2019-02-05T09:13:38.650Z,102066.34
2019-02-05T09:16:05.494Z,102060.33
2019-02-05T09:18:32.514Z,102063.55
2019-02-05T09:20:59.238Z,102070.67
2019-02-05T09:23:26.076Z,102065.49
2019-02-05T09:25:53.085Z,102069.23
2019-02-05T09:28:20.217Z,102072.39
2019-02-05T09:30:47.070Z,102065.44
2019-02-05T09:36:28.067Z,102079.84
2019-02-05T09:38:54.714Z,102068.19
2019-02-05T09:41:21.558Z,102081.19
2019-02-05T09:44:07.869Z,102071.99
2019-02-05T09:46:34.895Z,102077.55
2019-02-05T09:49:03.813Z,102076.52
2019-02-05T09:51:44.368Z,102079.63
2019-02-05T09:54:11.125Z,102082.53
2019-02-05T09:56:38.003Z,102080.94
2019-02-05T09:59:04.950Z,102085.29
2019-02-05T10:01:31.788Z,102091.18
2019-02-05T10:03:59.081Z,102087.52
2019-02-05T10:06:26.071Z,102091.63
2019-02-05T10:08:52.955Z,102095.35
2019-02-05T10:11:20.123Z,102099.50
2019-02-05T10:13:47.342Z,102103.53
2019-02-05T10:16:14.640Z,102105.55
2019-02-05T10:18:41.483Z,102098.37
2019-02-05T10:21:08.405Z,102105.72
2019-02-05T10:23:35.161Z,102104.05
2019-02-05T10:26:02.068Z,102106.09
2019-02-05T10:28:28.928Z,102099.47
2019-02-05T10:30:55.989Z,102102.02
2019-02-05T10:33:22.741Z,102093.41
2019-02-05T10:35:49.644Z,102092.35
2019-02-05T10:38:16.514Z,102084.91
2019-02-05T10:40:43.738Z,102088.36
2019-02-05T10:43:10.914Z,102089.51
2019-02-05T10:45:37.785Z,102086.73
2019-02-05T10:51:44.480Z,102095.86
2019-02-05T10:54:24.635Z,102093.20
2019-02-05T10:56:51.873Z,102097.06
2019-02-05T10:59:18.917Z,102099.34
2019-02-05T11:01:46.336Z,102093.57
2019-02-05T11:04:15.288Z,102093.20
2019-02-05T11:06:42.064Z,102095.86
2019-02-05T11:09:09.673Z,102095.61
2019-02-05T11:11:37.234Z,102088.69
2019-02-05T11:14:04.241Z,102092.82
2019-02-05T11:16:31.809Z,102084.13
2019-02-05T11:18:58.752Z,102088.92
2019-02-05T11:21:25.638Z,102085.16
2019-02-05T11:23:56.399Z,102090.97
2019-02-05T11:26:23.836Z,102090.31
2019-02-05T11:28:50.755Z,102096.54
2019-02-05T11:31:17.701Z,102089.16
2019-02-05T11:33:45.019Z,102089.38
2019-02-05T11:36:12.236Z,102091.97
2019-02-05T11:38:39.090Z,102085.80
2019-02-05T11:41:06.011Z,102091.27
2019-02-05T11:43:33.218Z,102097.13
2019-02-05T11:46:00.187Z,102089.00
2019-02-05T11:48:27.121Z,102101.19
2019-02-05T11:50:55.176Z,102096.06
2019-02-05T11:53:22.496Z,102098.94
2019-02-05T11:55:50.026Z,102098.34
2019-02-05T11:58:16.958Z,102089.14
2019-02-05T12:01:03.547Z,102093.55
2019-02-05T12:03:30.379Z,102093.97
2019-02-05T12:05:57.108Z,102087.16
2019-02-05T12:08:24.168Z,102089.81
2019-02-05T12:10:51.444Z,102087.43
2019-02-05T12:13:18.590Z,102087.38
2019-02-05T12:15:46.121Z,102084.31
2019-02-05T12:18:13.306Z,102079.56
2019-02-05T12:20:41.966Z,102078.14
2019-02-05T12:23:08.848Z,102075.07
2019-02-05T12:25:35.946Z,102082.75
2019-02-05T12:30:57.526Z,102078.94
2019-02-05T12:33:27.746Z,102088.47
2019-02-05T12:35:55.019Z,102083.86
2019-02-05T12:38:41.410Z,102085.91
2019-02-05T12:41:08.857Z,102083.19
2019-02-05T12:43:36.157Z,102089.98
2019-02-05T12:46:04.388Z,102078.94
2019-02-05T12:48:32.268Z,102085.20
2019-02-05T12:50:59.908Z,102085.53
2019-02-05T12:53:26.818Z,102084.78
2019-02-05T12:55:53.557Z,102095.20
2019-02-05T12:58:20.460Z,102095.78
2019-02-05T13:00:58.684Z,102094.06
2019-02-05T13:03:18.739Z,102083.05
2019-02-05T13:05:45.682Z,102082.43
2019-02-05T13:08:12.706Z,102083.86
2019-02-05T13:10:41.850Z,102094.58
2019-02-05T13:13:09.267Z,102080.92
2019-02-05T13:15:36.166Z,102089.58
2019-02-05T13:18:24.362Z,102086.00
2019-02-05T13:20:51.225Z,102083.44
2019-02-05T13:23:18.129Z,102083.23
2019-02-05T13:25:45.153Z,102088.81
2019-02-05T13:28:12.912Z,102088.27
2019-02-05T13:30:39.754Z,102088.39
2019-02-05T13:33:26.204Z,102085.28
2019-02-05T13:35:53.219Z,102090.87
2019-02-05T13:38:20.389Z,102090.87
2019-02-05T13:40:47.739Z,102088.90
2019-02-05T13:43:14.589Z,102082.59
2019-02-05T13:45:41.808Z,102089.82
2019-02-05T13:48:09.142Z,102086.59
2019-02-05T13:50:36.111Z,102084.91
2019-02-05T13:53:03.258Z,102090.66
2019-02-05T13:56:12.073Z,102090.70
2019-02-05T13:58:38.807Z,102099.12
2019-02-05T14:01:05.704Z,102101.25
2019-02-05T14:03:32.495Z,102101.53
2019-02-05T14:05:59.318Z,102106.95
2019-02-05T14:08:26.071Z,102101.50
2019-02-05T14:11:33.907Z,102102.80
2019-02-05T14:14:00.530Z,102108.80
2019-02-05T14:16:47.514Z,102114.58
2019-02-05T14:19:14.570Z,102109.77
2019-02-05T14:21:41.989Z,102112.16
2019-02-05T14:24:09.207Z,102116.02
2019-02-05T14:26:36.629Z,102122.45
2019-02-05T14:29:03.542Z,102128.54
2019-02-05T14:31:31.693Z,102122.91
2019-02-05T14:33:58.634Z,102126.59
2019-02-05T14:36:25.722Z,102128.44
2019-02-05T14:38:52.750Z,102124.06
2019-02-05T14:41:19.804Z,102129.70
2019-02-05T14:43:46.688Z,102133.09
2019-02-05T14:46:13.669Z,102134.25
2019-02-05T14:48:40.591Z,102134.55
2019-02-05T14:51:07.481Z,102128.22
2019-02-05T14:53:34.523Z,102137.80
2019-02-05T14:56:03.478Z,102140.16
2019-02-05T14:58:30.310Z,102137.38
2019-02-05T15:00:57.206Z,102131.47
2019-02-05T15:03:24.122Z,102134.73
2019-02-05T15:05:51.129Z,102140.58
2019-02-05T15:08:18.472Z,102142.39
2019-02-05T15:10:45.354Z,102138.82
2019-02-05T15:13:12.418Z,102139.94
2019-02-05T15:15:39.781Z,102146.30
2019-02-05T15:18:09.216Z,102147.83
2019-02-05T15:20:41.488Z,102146.38
2019-02-05T15:23:08.900Z,102149.77
2019-02-05T15:25:35.885Z,102146.66
2019-02-05T15:30:56.938Z,102144.47
2019-02-05T15:33:43.293Z,102149.35
2019-02-05T15:36:31.594Z,102151.91
2019-02-05T15:38:58.869Z,102151.98
2019-02-05T15:41:25.691Z,102161.87
2019-02-05T15:43:52.748Z,102159.37
2019-02-05T15:46:20.101Z,102158.49
2019-02-05T15:48:47.225Z,102161.03
2019-02-05T15:51:14.178Z,102161.28
2019-02-05T15:53:41.006Z,102162.22
2019-02-05T15:56:07.836Z,102160.56
2019-02-05T15:58:34.609Z,102157.84
2019-02-05T16:01:01.326Z,102154.14
2019-02-05T16:03:28.038Z,102157.27
2019-02-05T16:05:55.076Z,102157.78
2019-02-05T16:08:21.990Z,102155.95
2019-02-05T16:10:48.982Z,102153.59
2019-02-05T16:13:15.763Z,102157.05
2019-02-05T16:15:42.750Z,102157.31
2019-02-05T16:18:09.472Z,102164.11
2019-02-05T16:20:36.610Z,102159.45
2019-02-05T16:23:03.544Z,102166.56
2019-02-05T16:25:30.492Z,102166.16
2019-02-05T16:27:57.334Z,102166.98
2019-02-05T16:30:24.338Z,102170.05
2019-02-05T16:32:51.144Z,102172.56
2019-02-05T16:35:17.916Z,102167.73
2019-02-05T16:37:45.185Z,102173.86
2019-02-05T16:40:15.139Z,102173.30
2019-02-05T16:42:42.218Z,102178.33
2019-02-05T16:45:12.834Z,102180.84
2019-02-05T16:47:39.549Z,102180.93
2019-02-05T16:50:10.947Z,102176.98
2019-02-05T16:52:37.658Z,102180.64
2019-02-05T16:55:04.919Z,102180.38
2019-02-05T16:57:31.722Z,102177.62
2019-02-05T16:59:58.555Z,102181.30
2019-02-05T17:02:29.031Z,102179.49
2019-02-05T17:04:54.074Z,102185.73
2019-02-05T17:07:33.646Z,102182.14
2019-02-05T17:10:00.494Z,102183.59
2019-02-05T17:12:27.229Z,102183.95
2019-02-05T17:14:54.060Z,102194.19
2019-02-05T17:17:21.147Z,102194.27
2019-02-05T17:19:48.172Z,102190.63
2019-02-05T17:22:15.187Z,102195.48
2019-02-05T17:24:42.514Z,102201.99
2019-02-05T17:27:09.807Z,102197.98
2019-02-05T17:29:36.972Z,102199.16
2019-02-05T17:32:03.865Z,102207.81
2019-02-05T17:34:50.122Z,102206.97
2019-02-05T17:37:17.104Z,102209.02
2019-02-05T17:39:44.081Z,102206.98
2019-02-05T17:42:10.797Z,102204.32
2019-02-05T17:44:37.470Z,102206.04
2019-02-05T17:47:04.577Z,102207.20
2019-02-05T17:49:33.211Z,102204.97
2019-02-05T17:52:00.079Z,102210.42
2019-02-05T17:54:26.879Z,102205.42
2019-02-05T17:56:53.979Z,102203.81
2019-02-05T17:59:21.034Z,102206.72
2019-02-05T18:01:48.049Z,102203.51
2019-02-05T18:04:14.788Z,102209.44
2019-02-05T18:06:41.717Z,102213.77
2019-02-05T18:09:08.800Z,102212.46
2019-02-05T18:11:35.518Z,102211.11
2019-02-05T18:14:02.527Z,102214.50
2019-02-05T18:16:29.151Z,102217.94
2019-02-05T18:18:56.137Z,102220.33
2019-02-05T18:21:23.185Z,102221.98
2019-02-05T18:23:50.118Z,102221.00
2019-02-05T18:26:17.678Z,102223.92
2019-02-05T18:28:44.478Z,102226.52
2019-02-05T18:31:11.406Z,102226.09
2019-02-05T18:33:38.572Z,102224.80
2019-02-05T18:36:05.929Z,102227.55
2019-02-05T18:38:32.885Z,102231.92
2019-02-05T18:40:59.661Z,102227.80
2019-02-05T18:43:26.823Z,102233.02
2019-02-05T18:45:53.624Z,102232.08
2019-02-05T18:48:20.342Z,102230.27
2019-02-05T18:50:47.112Z,102229.44
2019-02-05T18:53:14.147Z,102230.20
2019-02-05T18:55:41.055Z,102234.80
2019-02-05T18:58:09.719Z,102234.42
2019-02-05T19:00:38.895Z,102227.92
2019-02-05T19:03:15.000Z,102233.13
2019-02-05T19:05:36.789Z,102221.78
2019-02-05T19:08:04.822Z,102229.58
2019-02-05T19:10:53.075Z,102229.94
2019-02-05T19:13:20.392Z,102225.95
2019-02-05T19:15:47.525Z,102222.67
2019-02-05T19:18:14.817Z,102233.64
2019-02-05T19:20:41.779Z,102228.91
2019-02-05T19:23:09.013Z,102231.92
2019-02-05T19:25:55.546Z,102229.89
2019-02-05T19:28:42.293Z,102226.30
2019-02-05T19:31:28.848Z,102231.45
2019-02-05T19:33:56.014Z,102234.94
2019-02-05T19:36:24.647Z,102233.63
2019-02-05T19:38:51.524Z,102234.57
2019-02-05T19:41:18.396Z,102237.59
2019-02-05T19:43:45.663Z,102239.53
2019-02-05T19:46:32.108Z,102243.06
2019-02-05T19:49:21.742Z,102244.31
2019-02-05T19:51:47.303Z,102246.44
2019-02-05T19:54:14.522Z,102243.02
2019-02-05T19:56:41.704Z,102244.25
2019-02-05T19:59:10.612Z,102247.34
2019-02-05T20:01:38.087Z,102246.85
2019-02-05T20:04:05.597Z,102247.22
2019-02-05T20:06:32.537Z,102242.98
2019-02-05T20:09:01.342Z,102244.75
2019-02-05T20:11:28.508Z,102246.11
2019-02-05T20:13:55.296Z,102242.88
2019-02-05T20:16:22.042Z,102243.45
2019-02-05T20:18:48.947Z,102244.86
2019-02-05T20:21:16.278Z,102248.83
2019-02-05T20:23:42.999Z,102248.57
2019-02-05T20:26:09.999Z,102247.17
2019-02-05T20:28:38.906Z,102238.68
2019-02-05T20:31:06.030Z,102250.95
2019-02-05T20:33:32.758Z,102240.41
2019-02-05T20:35:59.664Z,102244.12
2019-02-05T20:38:26.484Z,102240.34
2019-02-05T20:40:53.520Z,102242.11
2019-02-05T20:43:20.420Z,102237.05
2019-02-05T20:45:47.544Z,102243.61
2019-02-05T20:48:16.268Z,102244.52
2019-02-05T20:50:43.089Z,102245.20
2019-02-05T20:53:14.114Z,102246.02
2019-02-05T20:55:38.885Z,102244.67
2019-02-05T20:58:05.750Z,102252.47
2019-02-05T21:00:32.604Z,102245.60
2019-02-05T21:02:59.711Z,102250.75
2019-02-05T21:05:26.606Z,102252.47
2019-02-05T21:07:53.629Z,102261.23
2019-02-05T21:10:21.195Z,102258.45
2019-02-05T21:12:48.521Z,102260.03
2019-02-05T21:15:15.608Z,102263.94
2019-02-05T21:17:42.441Z,102264.86
2019-02-05T21:20:11.035Z,102264.70
2019-02-05T21:22:39.785Z,102261.16
2019-02-05T21:28:10.000Z,102263.66
2019-02-05T21:30:37.243Z,102268.15
2019-02-05T21:33:04.043Z,102276.01
2019-02-05T21:35:31.235Z,102279.18
2019-02-05T21:37:59.041Z,102287.55
2019-02-05T21:40:26.046Z,102282.93
2019-02-05T21:42:53.960Z,102280.44
2019-02-05T21:45:22.051Z,102281.14
2019-02-05T21:47:56.896Z,102280.67
2019-02-05T21:50:24.132Z,102291.74
2019-02-05T21:52:51.691Z,102285.41
2019-02-05T21:55:19.316Z,102283.64
2019-02-05T21:57:46.684Z,102278.55
2019-02-05T22:00:17.157Z,102281.41
2019-02-05T22:02:44.916Z,102286.14
2019-02-05T22:05:11.920Z,102279.52
2019-02-05T22:07:39.030Z,102281.13
2019-02-05T22:10:06.141Z,102281.49
2019-02-05T22:12:32.926Z,102280.19
2019-02-05T22:15:12.445Z,102281.91
2019-02-05T22:17:39.581Z,102274.08
2019-02-05T22:20:09.593Z,102283.68
2019-02-05T22:22:36.648Z,102276.23
2019-02-05T22:25:09.959Z,102283.52
2019-02-05T22:27:37.388Z,102278.08
2019-02-05T22:30:28.320Z,102277.61
2019-02-05T22:33:37.292Z,102278.91
2019-02-05T22:36:05.676Z,102279.47
2019-02-05T22:38:33.551Z,102280.55
2019-02-05T22:41:00.867Z,102281.62
2019-02-05T22:43:28.066Z,102282.97
2019-02-05T22:45:55.664Z,102280.27
2019-02-05T22:48:25.439Z,102279.30
2019-02-05T22:50:52.463Z,102283.97
2019-02-05T22:53:20.076Z,102287.70
2019-02-05T22:55:48.056Z,102287.47
2019-02-05T22:58:15.512Z,102290.84
2019-02-05T23:01:21.368Z,102287.77
2019-02-05T23:04:09.988Z,102285.64
2019-02-05T23:06:58.791Z,102280.73
2019-02-05T23:10:04.775Z,102282.56
2019-02-05T23:12:56.538Z,102283.23
2019-02-05T23:15:25.062Z,102281.20
2019-02-05T23:17:53.835Z,102285.41
2019-02-05T23:20:21.770Z,102285.86
2019-02-05T23:22:49.148Z,102284.40
2019-02-05T23:25:15.975Z,102281.31
2019-02-05T23:27:42.803Z,102282.86
2019-02-05T23:30:29.327Z,102281.48
2019-02-05T23:32:56.708Z,102287.58
2019-02-05T23:35:25.377Z,102289.48
2019-02-05T23:37:52.165Z,102290.41
2019-02-05T23:40:18.987Z,102289.70
2019-02-05T23:42:45.758Z,102298.94
2019-02-05T23:46:01.460Z,102291.03
2019-02-05T23:48:22.683Z,102292.02
2019-02-05T23:50:49.615Z,102293.14
2019-02-05T23:53:16.437Z,102299.05
2019-02-05T23:55:43.188Z,102299.70
2019-02-05T23:58:10.219Z,102292.20
